Time;durP1;ratioP1;P1;durP2;ratioP2;P2;SDS_P1;SDS_P2;PMS_P1;PMS_P2;Temp;Humidity;BMP_temperature;BMP_pressure;BME280_temperature;BME280_humidity;BME280_pressure;Samples;Min_cycle;Max_cycle;Signal;HPM_P1;HPM_P2
2023/06/14 00:00:35;;;;;;;;;;;;;;;25.31;39.25;100336.47;5076556;28;1020;-18
2023/06/14 00:03:00;;;;;;;;;;;;;;;25.57;38.68;100334.41;5076228;28;1119;-19
2023/06/14 00:05:26;;;;;;;;;;;;;;;25.86;37.69;100332.78;5081185;28;1972;-19
2023/06/14 00:07:53;;;;;;;;;;;;;;;25.48;38.94;100339.03;5057664;28;1078;-19
2023/06/14 00:10:18;;;;;;;;;;;;;;;26.13;36.84;100343.09;5075847;28;1118;-20
2023/06/14 00:12:44;;;;;;;;;;;;;;;22.84;42.76;100334.06;5075592;28;1030;-19
2023/06/14 00:15:09;;;;;;;;;;;;;;;23.69;43.06;100330.47;5075755;28;1030;-19
2023/06/14 00:17:36;;;;;;;;;;;;;;;24.58;40.96;100334.91;5076134;28;1142;-19
2023/06/14 00:20:03;;;;;;;;;;;;;;;25.12;38.76;100327.03;5089035;28;1488;-18
2023/06/14 00:22:28;;;;;;;;;;;;;;;25.15;39.42;100334.75;5087188;28;1055;-20
2023/06/14 00:24:54;;;;;;;;;;;;;;;26.01;37.82;100342.72;5091783;28;2028;-19
2023/06/14 00:27:19;;;;;;;;;;;;;;;25.58;38.39;100338.75;5087484;28;1079;-19
2023/06/14 00:29:45;;;;;;;;;;;;;;;25.61;38.16;100341.09;5082549;28;1182;-19
2023/06/14 00:32:10;;;;;;;;;;;;;;;26.09;37.58;100341.81;5085086;28;851;-19
2023/06/14 00:34:36;;;;;;;;;;;;;;;25.85;36.95;100341.91;5092611;28;1630;-19
2023/06/14 00:37:01;;;;;;;;;;;;;;;22.85;45.58;100342.97;5091749;28;1073;-19
2023/06/14 00:39:27;;;;;;;;;;;;;;;24.45;41.47;100337.31;5078141;28;1035;-19
2023/06/14 00:41:52;;;;;;;;;;;;;;;24.88;40.31;100334.22;5076164;28;1050;-19
2023/06/14 00:44:19;;;;;;;;;;;;;;;25.05;39.79;100331.44;5068493;28;1898;-19
2023/06/14 00:46:45;;;;;;;;;;;;;;;25.77;38.21;100339.28;5061056;28;1430;-19
2023/06/14 00:49:11;;;;;;;;;;;;;;;25.35;39.12;100341.50;5095902;28;1146;-18
2023/06/14 00:51:37;;;;;;;;;;;;;;;25.88;37.74;100336.13;5066522;28;1559;-19
2023/06/14 00:54:02;;;;;;;;;;;;;;;25.63;38.16;100346.31;5057783;28;1207;-19
2023/06/14 00:56:29;;;;;;;;;;;;;;;25.36;38.98;100337.78;5076287;28;874;-19
2023/06/14 00:58:55;;;;;;;;;;;;;;;26.01;37.64;100340.88;5080500;28;1126;-19
2023/06/14 01:01:20;;;;;;;;;;;;;;;25.12;35.42;100329.72;5096070;28;1158;-18
2023/06/14 01:03:46;;;;;;;;;;;;;;;22.94;44.77;100335.78;5095819;28;1244;-19
2023/06/14 01:06:26;;;;;;;;;;;;;;;24.41;40.91;100341.34;5083969;28;1913;-19
2023/06/14 01:09:10;;;;;;;;;;;;;;;25.02;39.51;100337.19;5058575;28;972;-19
2023/06/14 01:11:38;;;;;;;;;;;;;;;25.16;39.09;100339.09;5075388;28;1070;-19
2023/06/14 01:14:05;;;;;;;;;;;;;;;25.93;37.58;100332.88;5057610;28;1214;-19
2023/06/14 01:16:32;;;;;;;;;;;;;;;25.75;37.85;100334.09;5073792;28;1117;-19
2023/06/14 01:18:57;;;;;;;;;;;;;;;25.67;37.90;100332.28;5078100;28;1040;-19
2023/06/14 01:21:24;;;;;;;;;;;;;;;22.06;48.09;100330.56;5063431;28;1103;-19
2023/06/14 01:23:52;;;;;;;;;;;;;;;24.19;41.75;100333.06;5078494;28;1134;-19
2023/06/14 01:26:24;;;;;;;;;;;;;;;24.55;40.83;100337.94;5099222;28;1130;-19
2023/06/14 01:28:52;;;;;;;;;;;;;;;25.62;38.46;100337.38;5081250;28;1142;-18
2023/06/14 01:31:19;;;;;;;;;;;;;;;25.53;38.39;100338.47;5063721;28;1149;-19
2023/06/14 01:33:45;;;;;;;;;;;;;;;25.64;38.40;100340.75;5088146;28;1147;-19
2023/06/14 01:36:10;;;;;;;;;;;;;;;26.06;37.28;100350.28;5091412;28;1107;-19
2023/06/14 01:38:36;;;;;;;;;;;;;;;25.46;35.60;100337.53;5089765;28;1062;-20
2023/06/14 01:41:02;;;;;;;;;;;;;;;22.93;45.58;100320.69;5063163;28;1178;-18
2023/06/14 01:43:28;;;;;;;;;;;;;;;24.61;40.80;100335.56;5071422;28;1086;-19
2023/06/14 01:45:53;;;;;;;;;;;;;;;24.97;39.86;100344.97;5062970;28;1913;-19
2023/06/14 01:48:19;;;;;;;;;;;;;;;25.17;39.52;100346.16;5096161;28;1387;-19
2023/06/14 01:50:45;;;;;;;;;;;;;;;25.84;37.95;100339.41;5061791;28;1118;-19
2023/06/14 01:53:10;;;;;;;;;;;;;;;25.56;38.65;100343.47;5066043;28;968;-19
2023/06/14 01:55:43;;;;;;;;;;;;;;;26.02;37.55;100347.13;5098377;28;1081;-19
2023/06/14 01:58:08;;;;;;;;;;;;;;;25.87;37.75;100345.25;5067004;28;1217;-19
2023/06/14 02:00:34;;;;;;;;;;;;;;;25.51;39.31;100341.34;5079883;28;1203;-19
2023/06/14 02:03:00;;;;;;;;;;;;;;;22.04;49.34;100338.75;5097586;28;1088;-19
2023/06/14 02:05:26;;;;;;;;;;;;;;;24.24;42.21;100327.16;5090380;28;1957;-19
2023/06/14 02:07:53;;;;;;;;;;;;;;;24.46;41.05;100337.13;5080107;28;1253;-19
2023/06/14 02:10:18;;;;;;;;;;;;;;;25.37;39.56;100332.22;5089554;28;1254;-19
2023/06/14 02:12:44;;;;;;;;;;;;;;;25.33;38.83;100336.28;5078536;28;1076;-19
2023/06/14 02:15:16;;;;;;;;;;;;;;;25.04;39.77;100337.88;5077988;28;1222;-19
2023/06/14 02:17:42;;;;;;;;;;;;;;;25.95;37.65;100338.09;5090102;28;1392;-19
2023/06/14 02:20:09;;;;;;;;;;;;;;;25.59;38.12;100339.59;5079804;28;1293;-19
2023/06/14 02:22:34;;;;;;;;;;;;;;;25.69;38.37;100345.63;5085942;28;1210;-19
2023/06/14 02:25:00;;;;;;;;;;;;;;;25.87;37.70;100341.72;5059956;28;1910;-19
2023/06/14 02:27:26;;;;;;;;;;;;;;;25.47;38.78;100337.34;5081092;28;1246;-19
2023/06/14 02:29:51;;;;;;;;;;;;;;;26.08;36.74;100340.13;5074543;28;1456;-19
2023/06/14 02:32:17;;;;;;;;;;;;;;;23.40;40.28;100339.88;5095202;28;1078;-20
2023/06/14 02:34:49;;;;;;;;;;;;;;;23.30;44.20;100351.59;5089791;28;1070;-19
2023/06/14 02:37:18;;;;;;;;;;;;;;;24.60;41.59;100352.69;5071217;28;1324;-19
2023/06/14 02:39:45;;;;;;;;;;;;;;;25.22;39.27;100352.88;5061673;28;1719;-19
2023/06/14 02:42:10;;;;;;;;;;;;;;;25.00;39.67;100361.59;5091413;28;1114;-19
2023/06/14 02:44:36;;;;;;;;;;;;;;;25.88;37.81;100354.16;5097222;28;1910;-19
2023/06/14 02:47:02;;;;;;;;;;;;;;;25.68;38.02;100363.63;5083846;28;1109;-18
2023/06/14 02:49:27;;;;;;;;;;;;;;;25.51;38.44;100359.34;5077755;28;1138;-20
2023/06/14 02:51:54;;;;;;;;;;;;;;;22.01;48.14;100361.34;5074245;28;1544;-20
2023/06/14 02:54:19;;;;;;;;;;;;;;;23.90;42.55;100354.09;5079229;28;1170;-19
2023/06/14 02:56:45;;;;;;;;;;;;;;;24.29;41.96;100357.88;5070056;28;1277;-19
2023/06/14 02:59:11;;;;;;;;;;;;;;;25.15;39.42;100361.66;5082492;28;1318;-19
2023/06/14 03:01:40;;;;;;;;;;;;;;;25.14;39.35;100356.47;5089232;28;1120;-20
2023/06/14 03:04:07;;;;;;;;;;;;;;;24.99;39.86;100367.97;5078827;28;1979;-20
2023/06/14 03:06:36;;;;;;;;;;;;;;;24.79;39.88;100375.66;5065739;28;1098;-20
2023/06/14 03:09:04;;;;;;;;;;;;;;;24.78;40.05;100373.97;5060656;28;1132;-19
2023/06/14 03:11:31;;;;;;;;;;;;;;;25.35;38.82;100366.56;5076210;28;1264;-21
2023/06/14 03:13:56;;;;;;;;;;;;;;;25.08;39.36;100371.47;5071751;28;1989;-25
2023/06/14 03:16:24;;;;;;;;;;;;;;;24.62;40.43;100370.34;5091143;28;1038;-20
2023/06/14 03:18:51;;;;;;;;;;;;;;;25.23;39.35;100370.69;5070800;28;1418;-19
2023/06/14 03:21:17;;;;;;;;;;;;;;;25.26;39.23;100375.69;5076868;28;1233;-20
2023/06/14 03:23:44;;;;;;;;;;;;;;;25.22;39.16;100367.16;5070652;28;1193;-20
2023/06/14 03:26:13;;;;;;;;;;;;;;;24.58;40.35;100372.56;5071686;28;1914;-20
2023/06/14 03:28:40;;;;;;;;;;;;;;;24.66;40.53;100370.81;5068509;28;1298;-22
2023/06/14 03:31:06;;;;;;;;;;;;;;;24.90;39.95;100380.66;5076616;28;1094;-19
2023/06/14 03:33:32;;;;;;;;;;;;;;;24.33;41.14;100382.56;5063798;28;1581;-19
2023/06/14 03:35:57;;;;;;;;;;;;;;;24.12;41.62;100383.09;5076611;28;1030;-19
2023/06/14 03:38:23;;;;;;;;;;;;;;;23.33;43.80;100383.47;5059051;28;1402;-19
2023/06/14 03:40:49;;;;;;;;;;;;;;;24.07;41.99;100378.25;5074239;28;1287;-19
2023/06/14 03:43:15;;;;;;;;;;;;;;;24.17;42.02;100378.88;5075307;28;1562;-19
2023/06/14 03:45:41;;;;;;;;;;;;;;;24.27;41.56;100386.78;5070425;28;1975;-19
2023/06/14 03:48:08;;;;;;;;;;;;;;;23.87;42.57;100389.34;5087192;28;1605;-19
2023/06/14 03:50:37;;;;;;;;;;;;;;;23.71;43.02;100385.66;5092364;28;1383;-19
2023/06/14 03:53:03;;;;;;;;;;;;;;;23.73;43.13;100378.28;5060590;28;1060;-23
2023/06/14 03:55:33;;;;;;;;;;;;;;;24.24;42.35;100386.28;5058804;28;1398;-22
2023/06/14 03:57:59;;;;;;;;;;;;;;;23.81;43.12;100390.00;5070092;28;901;-21
2023/06/14 04:00:25;;;;;;;;;;;;;;;24.58;41.69;100390.53;5090943;28;1087;-22
2023/06/14 04:02:50;;;;;;;;;;;;;;;24.21;41.71;100385.63;5077629;28;1312;-22
2023/06/14 04:05:18;;;;;;;;;;;;;;;24.17;42.84;100386.97;5063930;28;1969;-22
2023/06/14 04:07:50;;;;;;;;;;;;;;;22.07;48.64;100391.19;5070441;28;1060;-21
2023/06/14 04:10:16;;;;;;;;;;;;;;;23.67;44.39;100387.00;5089150;28;1141;-21
2023/06/14 04:12:42;;;;;;;;;;;;;;;23.99;43.44;100397.88;5076393;28;1008;-22
2023/06/14 04:15:08;;;;;;;;;;;;;;;24.23;43.12;100392.66;5076613;28;1145;-22
2023/06/14 04:17:34;;;;;;;;;;;;;;;24.29;42.52;100398.19;5058057;28;1189;-22
2023/06/14 04:20:00;;;;;;;;;;;;;;;24.26;42.93;100395.00;5059983;28;1432;-21
2023/06/14 04:22:28;;;;;;;;;;;;;;;24.97;41.01;100388.88;5068993;28;886;-20
2023/06/14 04:24:56;;;;;;;;;;;;;;;25.20;40.53;100388.03;5075736;28;1972;-20
2023/06/14 04:27:25;;;;;;;;;;;;;;;25.23;40.41;100393.06;5085428;28;1107;-20
2023/06/14 04:29:53;;;;;;;;;;;;;;;25.45;39.64;100393.25;5064747;28;1178;-20
2023/06/14 04:32:19;;;;;;;;;;;;;;;25.33;39.57;100400.06;5068516;28;1126;-21
2023/06/14 04:34:45;;;;;;;;;;;;;;;25.47;39.60;100407.38;5061257;28;1436;-20
2023/06/14 04:37:11;;;;;;;;;;;;;;;25.57;39.47;100401.75;5068282;28;1158;-20
2023/06/14 04:39:40;;;;;;;;;;;;;;;25.52;39.82;100406.81;5075202;28;1237;-21
2023/06/14 04:42:07;;;;;;;;;;;;;;;25.84;38.36;100421.03;5077813;28;1095;-22
2023/06/14 04:44:34;;;;;;;;;;;;;;;23.66;42.32;100420.25;5078648;28;1917;-21
2023/06/14 04:47:02;;;;;;;;;;;;;;;25.14;39.77;100427.25;5064938;28;1099;-21
2023/06/14 04:49:32;;;;;;;;;;;;;;;25.65;38.61;100428.63;5062616;28;1213;-21
2023/06/14 04:51:59;;;;;;;;;;;;;;;26.01;37.81;100437.91;5084590;28;1002;-20
2023/06/14 04:54:27;;;;;;;;;;;;;;;26.04;37.69;100440.22;5058103;28;1298;-21
2023/06/14 04:56:54;;;;;;;;;;;;;;;26.15;38.09;100440.81;5074323;28;1398;-20
2023/06/14 04:59:23;;;;;;;;;;;;;;;26.31;37.31;100438.97;5068517;28;1205;-20
2023/06/14 05:01:49;;;;;;;;;;;;;;;26.41;37.47;100442.25;5086694;28;1123;-20
2023/06/14 05:04:15;;;;;;;;;;;;;;;26.34;37.32;100438.63;5067985;28;1917;-20
2023/06/14 05:06:41;;;;;;;;;;;;;;;26.33;37.68;100439.66;5086347;28;1072;-20
2023/06/14 05:09:07;;;;;;;;;;;;;;;26.38;37.69;100438.06;5080186;28;1189;-20
2023/06/14 05:11:32;;;;;;;;;;;;;;;26.34;37.92;100434.06;5067905;28;1205;-20
2023/06/14 05:13:59;;;;;;;;;;;;;;;26.42;37.74;100443.94;5061828;28;1161;-20
2023/06/14 05:16:25;;;;;;;;;;;;;;;26.47;37.13;100438.84;5061609;28;1511;-20
2023/06/14 05:18:51;;;;;;;;;;;;;;;26.41;37.58;100443.09;5079198;28;1258;-21
2023/06/14 05:21:18;;;;;;;;;;;;;;;26.39;37.36;100445.13;5079020;28;1159;-22
2023/06/14 05:23:46;;;;;;;;;;;;;;;26.54;37.18;100447.00;5079640;28;1042;-21
2023/06/14 05:26:12;;;;;;;;;;;;;;;26.49;37.43;100454.81;5092631;28;1963;-21
2023/06/14 05:28:37;;;;;;;;;;;;;;;26.58;37.06;100450.16;5087225;28;1046;-21
2023/06/14 05:31:03;;;;;;;;;;;;;;;26.48;37.28;100456.69;5099129;28;1137;-20
2023/06/14 05:33:28;;;;;;;;;;;;;;;26.56;37.01;100457.63;5099221;28;1054;-20
2023/06/14 05:35:55;;;;;;;;;;;;;;;26.51;36.76;100459.00;5085712;28;1085;-20
2023/06/14 05:38:20;;;;;;;;;;;;;;;26.52;37.12;100463.38;5099992;28;1110;-20
2023/06/14 05:40:46;;;;;;;;;;;;;;;26.71;37.05;100468.41;5066460;28;1014;-20
2023/06/14 05:43:11;;;;;;;;;;;;;;;26.59;37.17;100465.34;5077805;28;1150;-22
2023/06/14 05:45:37;;;;;;;;;;;;;;;26.64;36.67;100466.44;5080648;28;1906;-20
2023/06/14 05:48:02;;;;;;;;;;;;;;;26.71;36.44;100471.09;5079512;28;1059;-21
2023/06/14 05:50:28;;;;;;;;;;;;;;;26.60;36.71;100473.25;5092295;28;1067;-20
2023/06/14 05:52:53;;;;;;;;;;;;;;;26.64;36.44;100477.22;5086281;28;1094;-21
2023/06/14 05:55:19;;;;;;;;;;;;;;;26.51;37.07;100479.72;5084719;28;1054;-20
2023/06/14 05:57:45;;;;;;;;;;;;;;;26.64;37.10;100471.81;5095447;28;1146;-20
2023/06/14 06:00:11;;;;;;;;;;;;;;;26.86;37.08;100476.50;5084647;28;1014;-21
2023/06/14 06:02:37;;;;;;;;;;;;;;;26.81;36.91;100478.91;5091809;28;1274;-21
2023/06/14 06:05:03;;;;;;;;;;;;;;;26.82;36.49;100478.72;5091976;28;1909;-20
2023/06/14 06:07:28;;;;;;;;;;;;;;;26.89;36.03;100482.31;5078530;28;1127;-20
2023/06/14 06:09:54;;;;;;;;;;;;;;;26.86;36.62;100481.88;5091030;28;1106;-21
2023/06/14 06:12:20;;;;;;;;;;;;;;;26.93;35.82;100481.94;5085497;28;1067;-21
2023/06/14 06:14:45;;;;;;;;;;;;;;;27.02;36.08;100483.56;5085222;28;1074;-21
2023/06/14 06:17:11;;;;;;;;;;;;;;;26.98;35.94;100490.31;5078577;28;1248;-20
2023/06/14 06:19:36;;;;;;;;;;;;;;;26.98;35.71;100491.16;5091655;28;1063;-21
2023/06/14 06:22:02;;;;;;;;;;;;;;;26.92;35.64;100488.38;5082726;28;1122;-21
2023/06/14 06:24:27;;;;;;;;;;;;;;;26.89;35.95;100485.03;5084658;28;1975;-20
2023/06/14 06:26:53;;;;;;;;;;;;;;;26.86;35.91;100484.59;5091119;28;1118;-21
2023/06/14 06:29:19;;;;;;;;;;;;;;;26.97;35.35;100492.19;5076622;28;1125;-21
2023/06/14 06:31:45;;;;;;;;;;;;;;;26.93;35.43;100488.19;5078044;28;1162;-22
2023/06/14 06:34:11;;;;;;;;;;;;;;;26.92;35.39;100486.53;5082320;28;1054;-21
2023/06/14 06:36:36;;;;;;;;;;;;;;;27.13;35.38;100487.63;5090477;28;1221;-20
2023/06/14 06:39:08;;;;;;;;;;;;;;;26.89;35.69;100481.50;5077757;28;1141;-20
2023/06/14 06:41:36;;;;;;;;;;;;;;;27.11;35.09;100481.59;5077501;28;1162;-21
2023/06/14 06:44:02;;;;;;;;;;;;;;;27.03;35.38;100482.53;5077534;28;1162;-21
2023/06/14 06:46:28;;;;;;;;;;;;;;;27.12;34.89;100478.72;5068380;28;1906;-22
2023/06/14 06:48:54;;;;;;;;;;;;;;;27.15;34.81;100482.88;5066823;28;1173;-20
2023/06/14 06:51:19;;;;;;;;;;;;;;;27.10;34.64;100480.75;5097343;28;1235;-21
2023/06/14 06:53:47;;;;;;;;;;;;;;;27.11;35.09;100484.28;5082787;28;1066;-20
2023/06/14 06:56:14;;;;;;;;;;;;;;;27.18;34.82;100487.03;5075851;28;1364;-21
2023/06/14 06:58:39;;;;;;;;;;;;;;;27.22;34.61;100486.50;5090675;28;1082;-21
2023/06/14 07:01:05;;;;;;;;;;;;;;;27.25;34.79;100478.00;5077248;28;1225;-20
2023/06/14 07:03:30;;;;;;;;;;;;;;;27.41;34.23;100483.38;5076953;28;1172;-21
2023/06/14 07:05:56;;;;;;;;;;;;;;;27.26;34.48;100493.19;5085984;28;1905;-20
2023/06/14 07:08:21;;;;;;;;;;;;;;;27.32;34.33;100488.91;5082212;28;1097;-21
2023/06/14 07:10:47;;;;;;;;;;;;;;;27.36;34.48;100486.66;5086015;28;1130;-21
2023/06/14 07:13:13;;;;;;;;;;;;;;;27.17;34.63;100480.84;5082156;28;1140;-20
2023/06/14 07:15:39;;;;;;;;;;;;;;;27.34;34.31;100486.81;5077389;28;1079;-21
2023/06/14 07:18:06;;;;;;;;;;;;;;;27.24;34.72;100481.72;5077143;28;1014;-21
2023/06/14 07:20:32;;;;;;;;;;;;;;;27.44;34.01;100491.09;5076882;28;1137;-21
2023/06/14 07:22:58;;;;;;;;;;;;;;;27.36;33.86;100483.94;5089469;28;1113;-21
2023/06/14 07:25:24;;;;;;;;;;;;;;;27.60;34.10;100484.59;5076743;28;1980;-20
2023/06/14 07:27:49;;;;;;;;;;;;;;;27.57;33.82;100493.09;5090422;28;1095;-20
2023/06/14 07:30:15;;;;;;;;;;;;;;;27.36;34.26;100484.78;5079559;28;1141;-20
2023/06/14 07:32:40;;;;;;;;;;;;;;;27.19;35.83;100486.88;5096553;28;1046;-22
2023/06/14 07:35:06;;;;;;;;;;;;;;;27.19;34.94;100484.19;5096753;28;1165;-22
2023/06/14 07:37:32;;;;;;;;;;;;;;;27.18;33.81;100484.34;5081812;28;1241;-22
2023/06/14 07:39:57;;;;;;;;;;;;;;;27.51;33.67;100486.56;5085123;28;1039;-23
2023/06/14 07:42:23;;;;;;;;;;;;;;;27.41;33.72;100484.19;5083267;28;1120;-23
2023/06/14 07:44:48;;;;;;;;;;;;;;;27.62;33.29;100482.53;5096935;28;1976;-23
2023/06/14 07:47:14;;;;;;;;;;;;;;;27.66;32.95;100470.31;5094916;28;979;-22
2023/06/14 07:49:40;;;;;;;;;;;;;;;27.56;32.90;100481.44;5075916;28;1166;-22
2023/06/14 07:52:05;;;;;;;;;;;;;;;27.39;33.06;100480.88;5090231;28;1055;-22
2023/06/14 07:54:32;;;;;;;;;;;;;;;27.63;32.90;100492.31;5087298;28;1046;-22
2023/06/14 07:57:00;;;;;;;;;;;;;;;27.17;34.92;100482.69;5083321;28;1070;-22
2023/06/14 07:59:26;;;;;;;;;;;;;;;27.22;34.89;100488.34;5087663;28;898;-22
2023/06/14 08:01:51;;;;;;;;;;;;;;;27.14;34.96;100481.22;5092114;28;1058;-22
2023/06/14 08:04:17;;;;;;;;;;;;;;;27.34;35.04;100486.81;5087457;28;1918;-22
2023/06/14 08:06:45;;;;;;;;;;;;;;;27.54;35.17;100496.19;5089703;28;1050;-22
2023/06/14 08:09:11;;;;;;;;;;;;;;;27.43;35.27;100492.09;5085668;28;1111;-22
2023/06/14 08:11:37;;;;;;;;;;;;;;;27.16;36.20;100481.03;5095525;28;1109;-22
2023/06/14 08:14:02;;;;;;;;;;;;;;;27.26;36.02;100498.59;5086996;28;1134;-22
2023/06/14 08:16:28;;;;;;;;;;;;;;;27.31;35.59;100486.38;5090422;28;1027;-21
2023/06/14 08:18:53;;;;;;;;;;;;;;;27.57;35.29;100493.94;5085102;28;1115;-21
2023/06/14 08:21:19;;;;;;;;;;;;;;;27.21;36.06;100494.78;5096127;28;1058;-22
2023/06/14 08:23:44;;;;;;;;;;;;;;;27.25;35.30;100490.66;5077715;28;848;-22
2023/06/14 08:26:10;;;;;;;;;;;;;;;27.13;35.68;100491.16;5096075;28;1910;-21
2023/06/14 08:28:36;;;;;;;;;;;;;;;27.25;35.19;100494.22;5078153;28;1055;-22
2023/06/14 08:31:01;;;;;;;;;;;;;;;27.20;35.82;100493.09;5095926;28;1086;-22
2023/06/14 08:33:27;;;;;;;;;;;;;;;27.18;35.25;100503.25;5098671;28;1069;-23
2023/06/14 08:35:52;;;;;;;;;;;;;;;27.19;35.89;100502.25;5099662;28;1045;-21
2023/06/14 08:38:18;;;;;;;;;;;;;;;27.32;35.59;100504.25;5100441;28;1054;-22
2023/06/14 08:40:43;;;;;;;;;;;;;;;27.27;35.71;100502.13;5099578;28;1089;-24
2023/06/14 08:43:09;;;;;;;;;;;;;;;27.28;35.98;100498.38;5070159;28;1214;-22
2023/06/14 08:45:35;;;;;;;;;;;;;;;27.41;35.50;100496.88;5086456;28;1906;-21
2023/06/14 08:48:01;;;;;;;;;;;;;;;27.47;35.54;100494.25;5099849;28;914;-22
2023/06/14 08:50:29;;;;;;;;;;;;;;;27.24;35.92;100499.81;5069153;28;1123;-21
2023/06/14 08:52:57;;;;;;;;;;;;;;;27.41;35.63;100488.78;5100149;28;1094;-22
2023/06/14 08:55:27;;;;;;;;;;;;;;;27.54;35.22;100497.03;5086365;28;1106;-21
2023/06/14 08:57:57;;;;;;;;;;;;;;;27.42;35.80;100480.47;5100531;28;1022;-22
2023/06/14 09:00:24;;;;;;;;;;;;;;;27.32;36.02;100485.34;5099656;28;1038;-22
2023/06/14 09:02:49;;;;;;;;;;;;;;;27.46;35.70;100480.94;5099627;28;1026;-22
2023/06/14 09:05:18;;;;;;;;;;;;;;;27.14;35.77;100481.22;5068270;28;1984;-22
2023/06/14 09:07:44;;;;;;;;;;;;;;;26.97;35.82;100475.16;5089859;28;1027;-21
2023/06/14 09:10:10;;;;;;;;;;;;;;;26.87;36.37;100464.66;5093507;28;1170;-22
2023/06/14 09:12:36;;;;;;;;;;;;;;;27.14;34.95;100471.22;5089668;28;950;-21
2023/06/14 09:15:05;;;;;;;;;;;;;;;27.34;35.78;100467.91;5096065;28;1119;-23
2023/06/14 09:17:32;;;;;;;;;;;;;;;27.39;35.48;100457.38;5079918;28;1042;-22
2023/06/14 09:19:58;;;;;;;;;;;;;;;27.89;33.49;100454.94;5097072;28;1146;-21
2023/06/14 09:22:23;;;;;;;;;;;;;;;28.06;33.71;100445.50;5089105;28;1110;-21
2023/06/14 09:24:49;;;;;;;;;;;;;;;28.04;33.00;100453.00;5092557;28;1973;-20
2023/06/14 09:27:15;;;;;;;;;;;;;;;28.18;33.03;100455.78;5089553;28;1067;-21
2023/06/14 09:29:40;;;;;;;;;;;;;;;28.43;32.59;100452.63;5095566;28;1006;-22
2023/06/14 09:32:06;;;;;;;;;;;;;;;28.07;32.66;100455.31;5090024;28;1043;-22
2023/06/14 09:34:32;;;;;;;;;;;;;;;28.15;32.51;100454.31;5095775;28;1436;-21
2023/06/14 09:36:58;;;;;;;;;;;;;;;28.07;33.14;100460.72;5089473;28;885;-21
2023/06/14 09:39:24;;;;;;;;;;;;;;;28.14;32.98;100460.75;5085276;28;979;-22
2023/06/14 09:41:50;;;;;;;;;;;;;;;28.21;32.06;100460.81;5099387;28;1062;-22
2023/06/14 09:44:17;;;;;;;;;;;;;;;28.67;32.21;100442.34;5097387;28;1910;-22
2023/06/14 09:46:43;;;;;;;;;;;;;;;28.39;31.75;100456.78;5080845;28;1106;-22
2023/06/14 09:49:09;;;;;;;;;;;;;;;28.57;31.85;100448.13;5080658;28;1090;-22
2023/06/14 09:51:35;;;;;;;;;;;;;;;28.59;31.96;100446.88;5098933;28;1058;-21
2023/06/14 09:54:06;;;;;;;;;;;;;;;28.04;33.35;100450.28;5076898;28;1019;-22
2023/06/14 09:56:34;;;;;;;;;;;;;;;27.88;34.01;100448.69;5089508;28;1043;-22
2023/06/14 09:59:00;;;;;;;;;;;;;;;27.85;33.80;100446.38;5080513;28;1122;-22
2023/06/14 10:01:27;;;;;;;;;;;;;;;27.80;33.32;100449.69;5089907;28;917;-22
2023/06/14 10:03:58;;;;;;;;;;;;;;;28.05;33.72;100448.41;5076863;28;1098;-21
2023/06/14 10:06:24;;;;;;;;;;;;;;;27.89;34.18;100449.53;5078756;28;1976;-22
2023/06/14 10:08:51;;;;;;;;;;;;;;;27.94;33.91;100450.63;5064630;28;1022;-22
2023/06/14 10:11:17;;;;;;;;;;;;;;;27.93;33.81;100446.25;5065164;28;1095;-21
2023/06/14 10:13:42;;;;;;;;;;;;;;;27.99;33.27;100452.75;5077426;28;853;-22
2023/06/14 10:16:22;;;;;;;;;;;;;;;27.92;33.65;100450.00;5078053;28;1046;-23
2023/06/14 10:19:06;;;;;;;;;;;;;;;27.92;33.43;100450.00;5078566;28;1023;-21
2023/06/14 10:21:42;;;;;;;;;;;;;;;27.71;34.38;100454.38;5077748;28;1058;-22
2023/06/14 10:24:08;;;;;;;;;;;;;;;27.72;34.98;100444.41;5072164;28;1101;-21
2023/06/14 10:26:33;;;;;;;;;;;;;;;27.82;35.49;100436.81;5058422;28;1906;-22
2023/06/14 10:29:16;;;;;;;;;;;;;;;28.03;35.25;100451.31;5069197;28;1162;-23
2023/06/14 10:31:43;;;;;;;;;;;;;;;27.98;35.28;100448.34;5065135;28;1151;-22
2023/06/14 10:34:08;;;;;;;;;;;;;;;27.73;35.47;100451.47;5078410;28;1119;-22
2023/06/14 10:36:34;;;;;;;;;;;;;;;27.68;35.39;100451.19;5070502;28;883;-21
2023/06/14 10:39:02;;;;;;;;;;;;;;;27.76;35.30;100456.50;5071603;28;1026;-21
2023/06/14 10:41:28;;;;;;;;;;;;;;;28.20;33.76;100453.72;5078060;28;1138;-23
2023/06/14 10:44:12;;;;;;;;;;;;;;;28.17;33.56;100457.66;5064395;28;1178;-22
2023/06/14 10:46:38;;;;;;;;;;;;;;;27.84;35.34;100460.94;5077722;28;1967;-22
2023/06/14 10:49:04;;;;;;;;;;;;;;;27.56;35.75;100456.31;5064404;28;1066;-22
2023/06/14 10:51:30;;;;;;;;;;;;;;;27.51;35.22;100451.44;5077456;28;1018;-23
2023/06/14 10:53:56;;;;;;;;;;;;;;;27.53;34.78;100460.22;5076043;28;1403;-22
2023/06/14 10:56:28;;;;;;;;;;;;;;;27.46;34.81;100453.91;5075889;28;1296;-24
2023/06/14 10:58:56;;;;;;;;;;;;;;;27.31;34.98;100453.97;5073399;28;1046;-22
2023/06/14 11:01:26;;;;;;;;;;;;;;;27.34;34.95;100459.00;5068634;28;859;-21
2023/06/14 11:03:55;;;;;;;;;;;;;;;27.58;34.72;100465.88;5058029;28;1489;-21
2023/06/14 11:06:23;;;;;;;;;;;;;;;27.19;34.87;100427.47;5057633;28;1902;-22
2023/06/14 11:09:12;;;;;;;;;;;;;;;27.83;34.79;100468.22;5057888;28;1083;-23
2023/06/14 11:11:38;;;;;;;;;;;;;;;28.16;34.76;100463.28;5071538;28;1078;-21
2023/06/14 11:14:04;;;;;;;;;;;;;;;28.28;35.03;100463.56;5076658;28;895;-21
2023/06/14 11:16:31;;;;;;;;;;;;;;;28.59;34.32;100460.41;5063823;28;1193;-22
2023/06/14 11:18:57;;;;;;;;;;;;;;;28.47;34.69;100452.06;5075919;28;1042;-22
2023/06/14 11:21:25;;;;;;;;;;;;;;;28.35;34.64;100453.63;5061013;28;1196;-22
2023/06/14 11:23:51;;;;;;;;;;;;;;;28.39;34.72;100454.06;5066580;28;1193;-22
2023/06/14 11:26:24;;;;;;;;;;;;;;;28.04;35.31;100455.69;5063921;28;1898;-21
2023/06/14 11:28:49;;;;;;;;;;;;;;;27.99;35.34;100464.38;5076798;28;1049;-21
2023/06/14 11:31:15;;;;;;;;;;;;;;;28.24;35.19;100457.69;5075000;28;1250;-22
2023/06/14 11:33:41;;;;;;;;;;;;;;;27.87;31.18;100466.81;5077104;28;1026;-20
2023/06/14 11:36:08;;;;;;;;;;;;;;;27.57;33.31;100466.06;5059901;28;1178;-21
2023/06/14 11:38:39;;;;;;;;;;;;;;;28.13;33.49;100467.19;5065887;28;1135;-22
2023/06/14 11:41:05;;;;;;;;;;;;;;;28.40;33.36;100471.97;5072124;28;1010;-22
2023/06/14 11:43:33;;;;;;;;;;;;;;;28.63;33.31;100460.84;5067718;28;1122;-23
2023/06/14 11:45:58;;;;;;;;;;;;;;;28.30;34.23;100465.03;5061782;28;1914;-22
2023/06/14 11:48:35;;;;;;;;;;;;;;;28.39;34.37;100460.31;5076024;28;1161;-21
2023/06/14 11:51:00;;;;;;;;;;;;;;;28.40;35.01;100470.09;5075845;28;1087;-22
2023/06/14 11:53:26;;;;;;;;;;;;;;;27.71;35.01;100462.47;5062515;28;1070;-21
2023/06/14 11:55:51;;;;;;;;;;;;;;;27.63;35.80;100468.00;5070160;28;1151;-21
2023/06/14 11:58:18;;;;;;;;;;;;;;;27.86;35.50;100475.91;5056660;28;1121;-21
2023/06/14 12:00:43;;;;;;;;;;;;;;;27.92;35.60;100468.91;5068432;28;1106;-21
2023/06/14 12:03:09;;;;;;;;;;;;;;;27.61;36.12;100479.00;5064217;28;1329;-21
2023/06/14 12:05:35;;;;;;;;;;;;;;;28.06;35.60;100467.13;5090144;28;1897;-21
2023/06/14 12:08:02;;;;;;;;;;;;;;;28.21;36.33;100471.63;5088950;28;1114;-21
2023/06/14 12:10:27;;;;;;;;;;;;;;;28.04;36.15;100471.06;5090499;28;1058;-20
2023/06/14 12:12:56;;;;;;;;;;;;;;;27.67;36.17;100468.44;5088395;28;1122;-20
2023/06/14 12:15:22;;;;;;;;;;;;;;;27.56;36.22;100465.22;5089734;28;1223;-22
2023/06/14 12:17:47;;;;;;;;;;;;;;;27.50;36.18;100466.84;5076870;28;1138;-21
2023/06/14 12:20:13;;;;;;;;;;;;;;;27.60;36.06;100465.69;5095605;28;1047;-20
2023/06/14 12:22:57;;;;;;;;;;;;;;;27.61;36.38;100472.78;5083672;28;1126;-21
2023/06/14 12:25:34;;;;;;;;;;;;;;;27.61;36.46;100465.47;5085027;28;1894;-20
2023/06/14 12:28:00;;;;;;;;;;;;;;;27.64;36.10;100458.88;5096077;28;1474;-20
2023/06/14 12:30:25;;;;;;;;;;;;;;;27.62;36.10;100459.06;5068591;28;1302;-20
2023/06/14 12:32:53;;;;;;;;;;;;;;;27.59;36.35;100455.91;5092552;28;1181;-21
2023/06/14 12:35:19;;;;;;;;;;;;;;;27.67;36.09;100460.34;5096044;28;1010;-20
2023/06/14 12:37:45;;;;;;;;;;;;;;;27.58;36.24;100457.78;5095642;28;1077;-20
2023/06/14 12:40:11;;;;;;;;;;;;;;;27.64;36.01;100448.06;5096029;28;1120;-20
2023/06/14 12:42:37;;;;;;;;;;;;;;;27.77;36.13;100452.78;5092174;28;1105;-20
2023/06/14 12:45:03;;;;;;;;;;;;;;;27.66;36.13;100448.69;5086811;28;1983;-20